createdAt,value
2016-08-07T00:00:23.521Z,98.27
2016-08-07T00:01:23.512Z,99.22
2016-08-07T00:02:23.511Z,99.22
2016-08-07T00:03:23.555Z,99.13
2016-08-07T00:04:23.557Z,99.22
2016-08-07T00:05:23.530Z,99.32
2016-08-07T00:06:23.549Z,99.41
2016-08-07T00:07:23.521Z,99.7
2016-08-07T00:08:23.568Z,99.99
2016-08-07T00:09:23.481Z,99.99
2016-08-07T00:10:23.544Z,99.8
2016-08-07T00:11:23.536Z,99.6
2016-08-07T00:12:23.500Z,99.7
2016-08-07T00:13:23.503Z,99.6
2016-08-07T00:14:23.486Z,99.99
2016-08-07T00:15:23.519Z,99.99
2016-08-07T00:16:23.578Z,99.89
2016-08-07T00:17:23.502Z,99.8
2016-08-07T00:18:23.500Z,99.99
2016-08-07T00:19:23.495Z,99.99
2016-08-07T00:20:23.522Z,99.99
2016-08-07T00:21:23.514Z,99.99
2016-08-07T00:22:23.527Z,99.99
2016-08-07T00:23:23.515Z,99.99
2016-08-07T00:24:23.520Z,99.99
2016-08-07T00:25:23.428Z,99.99
2016-08-07T00:26:24.370Z,99.99
2016-08-07T00:27:23.525Z,99.99
2016-08-07T00:28:23.443Z,99.99
2016-08-07T00:29:23.470Z,99.99
2016-08-07T00:30:23.504Z,99.99
2016-08-07T00:31:24.205Z,99.99
2016-08-07T00:32:23.474Z,99.99
2016-08-07T00:33:23.499Z,99.99
2016-08-07T00:34:23.436Z,99.66
2016-08-07T00:35:23.439Z,99.99
2016-08-07T00:36:23.451Z,99.85
2016-08-07T00:37:23.435Z,99.99
2016-08-07T00:38:23.432Z,99.75
2016-08-07T00:39:23.432Z,99.56
2016-08-07T00:40:23.430Z,99.27
2016-08-07T00:41:23.449Z,99.52
2016-08-07T00:42:23.396Z,99.42
2016-08-07T00:43:24.105Z,99.71
2016-08-07T00:44:23.388Z,99.23
2016-08-07T00:45:23.363Z,99.23
2016-08-07T00:46:23.379Z,99.42
2016-08-07T00:47:23.378Z,99.42
2016-08-07T00:48:23.349Z,99.32
2016-08-07T00:49:23.398Z,98.47
2016-08-07T00:50:23.340Z,98.75
2016-08-07T00:51:23.350Z,98.85
2016-08-07T00:52:23.341Z,98.37
2016-08-07T00:53:23.391Z,98.75
2016-08-07T00:54:23.243Z,99.23
2016-08-07T00:55:23.250Z,98.94
2016-08-07T00:56:23.228Z,98.71
2016-08-07T00:57:23.216Z,98.37
2016-08-07T00:58:23.210Z,98.23
2016-08-07T00:59:23.321Z,98.32
2016-08-07T01:00:23.308Z,98.42
2016-08-07T01:01:23.182Z,98.42
2016-08-07T01:02:23.210Z,98.42
2016-08-07T01:03:23.174Z,97.85
2016-08-07T01:04:23.308Z,97.94
2016-08-07T01:05:25.050Z,97.27
2016-08-07T01:06:23.221Z,97.27
2016-08-07T01:07:23.214Z,96.89
2016-08-07T01:08:23.180Z,96.89
2016-08-07T01:09:23.026Z,97.08
2016-08-07T01:10:23.209Z,97.37
2016-08-07T01:11:23.301Z,96.42
2016-08-07T01:12:23.038Z,96.13
2016-08-07T01:13:23.187Z,96.51
2016-08-07T01:14:23.036Z,96.42
2016-08-07T01:15:23.192Z,95.94
2016-08-07T01:16:23.334Z,96.51
2016-08-07T01:17:23.201Z,96.61
2016-08-07T01:18:22.989Z,96.61
2016-08-07T01:19:23.022Z,97.37
2016-08-07T01:20:23.035Z,96.98
2016-08-07T01:21:23.092Z,97.27
2016-08-07T01:22:22.842Z,97.27
2016-08-07T01:24:22.978Z,96.7
2016-08-07T01:25:22.981Z,98.03
2016-08-07T01:26:22.817Z,97.94
2016-08-07T01:27:22.834Z,97.08
2016-08-07T01:28:22.992Z,97.37
2016-08-07T01:29:23.552Z,96.98
2016-08-07T01:30:22.856Z,97.18
2016-08-07T01:31:22.842Z,96.7
2016-08-07T01:32:22.813Z,96.8
2016-08-07T01:33:23.000Z,96.42
2016-08-07T01:34:23.020Z,96.98
2016-08-07T01:35:23.508Z,96.66
2016-08-07T01:36:22.798Z,96.27
2016-08-07T01:37:22.788Z,96.84
2016-08-07T01:38:22.791Z,96.56
2016-08-07T01:39:22.759Z,96.56
2016-08-07T01:40:22.764Z,96.66
2016-08-07T01:41:22.761Z,96.46
2016-08-07T01:42:22.788Z,96.17
2016-08-07T01:43:23.529Z,95.79
2016-08-07T01:44:22.881Z,95.32
2016-08-07T01:45:22.742Z,96.17
2016-08-07T01:46:22.763Z,95.98
2016-08-07T01:47:22.730Z,96.17
2016-08-07T01:48:22.819Z,96.08
2016-08-07T01:49:22.757Z,95.7
2016-08-07T01:50:22.744Z,94.65
2016-08-07T01:52:22.678Z,94.84
2016-08-07T01:53:22.743Z,95.41
2016-08-07T01:54:22.667Z,95.41
2016-08-07T01:55:22.679Z,95.41
2016-08-07T01:56:22.665Z,96.08
2016-08-07T01:57:22.638Z,96.17
2016-08-07T01:58:22.635Z,95.7
2016-08-07T01:59:23.331Z,95.79
2016-08-07T02:00:22.619Z,95.79
2016-08-07T02:01:22.615Z,96.8
2016-08-07T02:02:22.631Z,96.51
2016-08-07T02:03:22.608Z,96.22
2016-08-07T02:04:22.613Z,95.7
2016-08-07T02:05:22.587Z,95.61
2016-08-07T02:07:22.591Z,95.56
2016-08-07T02:08:22.646Z,95.84
2016-08-07T02:09:22.869Z,95.84
2016-08-07T02:10:22.644Z,96.32
2016-08-07T02:11:22.566Z,95.94
2016-08-07T02:12:22.569Z,95.36
2016-08-07T02:13:22.707Z,95.17
2016-08-07T02:14:22.661Z,94.51
2016-08-07T02:15:22.548Z,94.79
2016-08-07T02:16:22.629Z,94.6
2016-08-07T02:17:23.283Z,94.41
2016-08-07T02:18:22.528Z,94.22
2016-08-07T02:19:22.587Z,93.45
2016-08-07T02:20:22.530Z,93.12
2016-08-07T02:22:22.510Z,93.36
2016-08-07T02:23:22.529Z,93.65
2016-08-07T02:24:22.526Z,94.02
2016-08-07T02:25:23.368Z,93.93
2016-08-07T02:26:22.609Z,94.07
2016-08-07T02:27:22.488Z,94.27
2016-08-07T02:28:22.479Z,94.46
2016-08-07T02:29:22.473Z,95.32
2016-08-07T02:30:22.561Z,94.65
2016-08-07T02:31:22.526Z,94.65
2016-08-07T02:32:22.485Z,94.07
2016-08-07T02:33:22.454Z,94.74
2016-08-07T02:34:22.489Z,95.32
2016-08-07T02:35:23.351Z,95.12
2016-08-07T02:37:22.449Z,95.41
2016-08-07T02:38:22.554Z,95.41
2016-08-07T02:39:22.559Z,95.61
2016-08-07T02:40:22.434Z,95.98
2016-08-07T02:41:22.426Z,95.61
2016-08-07T02:42:22.487Z,95.51
2016-08-07T02:43:22.403Z,95.41
2016-08-07T02:44:22.462Z,95.12
2016-08-07T02:45:22.406Z,94.46
2016-08-07T02:46:22.406Z,94.46
2016-08-07T02:47:22.399Z,94.65
2016-08-07T02:48:22.391Z,94.27
2016-08-07T02:49:22.732Z,93.88
2016-08-07T02:50:22.380Z,93.98
2016-08-07T02:52:22.360Z,93.88
2016-08-07T02:53:22.417Z,93.98
2016-08-07T02:54:22.357Z,93.36
2016-08-07T02:55:22.441Z,94.03
2016-08-07T02:56:22.438Z,94.31
2016-08-07T02:57:22.353Z,94.79
2016-08-07T02:58:22.448Z,94.7
2016-08-07T02:59:22.448Z,94.51
2016-08-07T03:00:23.125Z,94.22
2016-08-07T03:01:22.326Z,94.79
2016-08-07T03:02:22.380Z,95.36
2016-08-07T03:03:22.313Z,95.65
2016-08-07T03:04:22.438Z,95.56
2016-08-07T03:05:22.443Z,95.36
2016-08-07T03:06:22.388Z,95.32
2016-08-07T03:07:22.321Z,95.61
2016-08-07T03:08:22.289Z,95.89
2016-08-07T03:09:22.345Z,95.61
2016-08-07T03:10:22.281Z,95.79
2016-08-07T03:11:22.331Z,96.27
2016-08-07T03:12:22.431Z,96.37
2016-08-07T03:13:22.312Z,95.98
2016-08-07T03:14:22.254Z,96.46
2016-08-07T03:15:22.256Z,97.03
2016-08-07T03:16:22.248Z,96.98
2016-08-07T03:17:22.247Z,97.56
2016-08-07T03:18:22.251Z,97.94
2016-08-07T03:19:22.251Z,97.94
2016-08-07T03:20:22.218Z,97.75
2016-08-07T03:21:22.216Z,97.75
2016-08-07T03:22:22.306Z,97.85
2016-08-07T03:23:22.236Z,98.03
2016-08-07T03:24:22.247Z,98.61
2016-08-07T03:25:22.220Z,98.32
2016-08-07T03:26:22.195Z,98.51
2016-08-07T03:27:22.188Z,98.03
2016-08-07T03:28:22.171Z,98.51
2016-08-07T03:29:22.367Z,98.51
2016-08-07T03:30:22.172Z,98.8
2016-08-07T03:31:22.200Z,98.8
2016-08-07T03:32:22.177Z,98.32
2016-08-07T03:33:22.169Z,98.7
2016-08-07T03:34:22.215Z,98.99
2016-08-07T03:35:22.177Z,99.56
2016-08-07T03:36:22.442Z,99.56
2016-08-07T03:37:22.113Z,99.32
2016-08-07T03:38:22.164Z,99.66
2016-08-07T03:39:22.102Z,99.99
2016-08-07T03:40:22.132Z,99.32
2016-08-07T03:41:22.106Z,99.13
2016-08-07T03:42:22.155Z,99.6
2016-08-07T03:43:22.322Z,99.7
2016-08-07T03:44:22.098Z,99.89
2016-08-07T03:45:22.088Z,99.7
2016-08-07T03:46:22.174Z,99.99
2016-08-07T03:47:22.055Z,99.89
2016-08-07T03:48:22.123Z,99.99
2016-08-07T03:49:22.092Z,99.99
2016-08-07T03:50:22.057Z,99.99
2016-08-07T03:51:22.042Z,99.99
2016-08-07T03:52:22.027Z,99.99
2016-08-07T03:53:22.132Z,99.99
2016-08-07T03:54:22.031Z,99.99
2016-08-07T03:55:22.445Z,99.99
2016-08-07T03:56:22.026Z,99.99
2016-08-07T03:57:22.020Z,99.99
2016-08-07T03:58:22.029Z,99.99
2016-08-07T03:59:21.997Z,99.99
2016-08-07T04:00:22.117Z,99.99
2016-08-07T04:01:21.972Z,99.99
2016-08-07T04:02:21.979Z,99.99
2016-08-07T04:03:21.971Z,99.99
2016-08-07T04:04:21.976Z,99.99
2016-08-07T04:05:21.964Z,99.99
2016-08-07T04:06:21.943Z,99.99
2016-08-07T04:07:21.934Z,99.99
2016-08-07T04:08:24.413Z,99.99
2016-08-07T04:09:21.930Z,99.99
2016-08-07T04:10:22.283Z,99.99
2016-08-07T04:11:21.979Z,99.99
2016-08-07T04:12:22.031Z,99.99
2016-08-07T04:13:21.936Z,99.99
2016-08-07T04:14:22.067Z,99.99
2016-08-07T04:15:22.069Z,99.99
2016-08-07T04:16:21.950Z,99.99
2016-08-07T04:17:21.878Z,99.99
2016-08-07T04:18:21.881Z,99.99
2016-08-07T04:19:21.881Z,99.99
2016-08-07T04:20:22.039Z,99.99
2016-08-07T04:21:21.853Z,99.99
2016-08-07T04:22:21.917Z,99.99
2016-08-07T04:23:21.839Z,99.99
2016-08-07T04:24:21.850Z,99.99
2016-08-07T04:25:22.122Z,99.99
2016-08-07T04:26:21.824Z,99.99
2016-08-07T04:27:21.817Z,99.99
2016-08-07T04:28:21.802Z,99.99
2016-08-07T04:29:21.877Z,99.99
2016-08-07T04:30:21.799Z,99.99
2016-08-07T04:31:21.790Z,99.99
2016-08-07T04:32:21.778Z,99.99
2016-08-07T04:33:21.781Z,99.99
2016-08-07T04:34:21.779Z,99.99
2016-08-07T04:35:21.767Z,99.99
2016-08-07T04:36:22.507Z,99.99
2016-08-07T04:37:21.818Z,99.99
2016-08-07T04:38:22.467Z,99.99
2016-08-07T04:39:21.933Z,99.99
2016-08-07T04:40:22.028Z,99.99
2016-08-07T04:41:21.824Z,99.99
2016-08-07T04:42:21.721Z,99.99
2016-08-07T04:43:21.726Z,99.99
2016-08-07T04:44:21.737Z,99.99
2016-08-07T04:45:21.720Z,99.99
2016-08-07T04:46:21.702Z,99.99
2016-08-07T04:47:21.692Z,99.99
2016-08-07T04:48:21.674Z,99.99
2016-08-07T04:49:21.739Z,99.99
2016-08-07T04:50:21.702Z,99.99
2016-08-07T04:51:21.664Z,99.99
2016-08-07T04:52:21.670Z,99.99
2016-08-07T04:53:21.653Z,99.99
2016-08-07T04:54:21.639Z,99.99
2016-08-07T04:55:21.651Z,99.99
2016-08-07T04:56:21.645Z,99.99
2016-08-07T04:57:21.643Z,99.99
2016-08-07T04:58:21.648Z,99.99
2016-08-07T04:59:21.613Z,99.99
2016-08-07T05:00:21.721Z,99.99
2016-08-07T05:01:21.627Z,99.99
2016-08-07T05:02:22.310Z,99.99
2016-08-07T05:03:21.590Z,99.99
2016-08-07T05:04:21.614Z,99.99
2016-08-07T05:05:21.737Z,99.99
2016-08-07T05:06:21.585Z,99.99
2016-08-07T05:07:21.567Z,99.99
2016-08-07T05:08:21.562Z,99.99
2016-08-07T05:09:21.557Z,99.99
2016-08-07T05:10:21.556Z,99.99
2016-08-07T05:11:21.551Z,99.99
2016-08-07T05:12:21.523Z,99.99
2016-08-07T05:13:21.733Z,99.99
2016-08-07T05:14:21.588Z,99.99
2016-08-07T05:15:22.300Z,99.99
2016-08-07T05:16:21.524Z,99.99
2016-08-07T05:17:21.514Z,99.99
2016-08-07T05:18:21.507Z,99.99
2016-08-07T05:19:22.275Z,99.99
2016-08-07T05:20:21.507Z,99.99
2016-08-07T05:21:21.487Z,99.99
2016-08-07T05:22:21.489Z,99.99
2016-08-07T05:23:21.517Z,99.99
2016-08-07T05:24:21.479Z,99.99
2016-08-07T05:25:21.455Z,99.99
2016-08-07T05:26:21.472Z,99.99
2016-08-07T05:27:21.557Z,99.99
2016-08-07T05:28:21.452Z,99.99
2016-08-07T05:29:21.434Z,99.99
2016-08-07T05:30:21.647Z,99.99
2016-08-07T05:31:21.426Z,99.99
2016-08-07T05:32:21.420Z,99.99
2016-08-07T05:33:21.406Z,99.99
2016-08-07T05:34:21.406Z,99.99
2016-08-07T05:35:21.613Z,99.99
2016-08-07T05:36:21.386Z,99.76
2016-08-07T05:38:21.386Z,99.52
2016-08-07T05:39:21.379Z,99.04
2016-08-07T05:40:22.825Z,99.23
2016-08-07T05:41:21.384Z,98.94
2016-08-07T05:42:21.373Z,98.47
2016-08-07T05:43:21.364Z,98.75
2016-08-07T05:44:22.050Z,98.94
2016-08-07T05:45:21.366Z,98.47
2016-08-07T05:46:21.354Z,98.66
2016-08-07T05:47:21.337Z,97.94
2016-08-07T05:48:21.338Z,97.37
2016-08-07T05:49:21.315Z,97.18
2016-08-07T05:50:22.033Z,96.7
2016-08-07T05:51:21.331Z,96.61
2016-08-07T05:53:21.301Z,96.03
2016-08-07T05:54:21.310Z,96.22
2016-08-07T05:55:21.292Z,96.32
2016-08-07T05:56:21.297Z,95.46
2016-08-07T05:57:21.292Z,95.56
2016-08-07T05:58:21.292Z,95.51
2016-08-07T05:59:21.277Z,94.7
2016-08-07T06:00:21.514Z,94.36
2016-08-07T06:01:21.289Z,94.22
2016-08-07T06:02:21.276Z,94.17
2016-08-07T06:03:21.251Z,93.21
2016-08-07T06:04:21.269Z,93.5
2016-08-07T06:05:21.245Z,93.5
2016-08-07T06:06:21.259Z,93.79
2016-08-07T06:08:21.239Z,92.64
2016-08-07T06:09:21.227Z,93.6
2016-08-07T06:10:21.227Z,93.31
2016-08-07T06:11:21.221Z,92.25
2016-08-07T06:12:21.219Z,92.74
2016-08-07T06:13:21.272Z,93.21
2016-08-07T06:14:21.234Z,94.46
2016-08-07T06:15:21.258Z,94.36
2016-08-07T06:16:21.343Z,94.07
2016-08-07T06:17:21.225Z,93.31
2016-08-07T06:18:21.237Z,93.31
2016-08-07T06:19:21.188Z,91.06
2016-08-07T06:20:21.189Z,88.76
2016-08-07T06:21:21.177Z,89.62
2016-08-07T06:23:21.187Z,89.05
2016-08-07T06:24:21.162Z,88.29
2016-08-07T06:25:21.165Z,87.9
2016-08-07T06:26:21.344Z,87.9
2016-08-07T06:27:21.164Z,88
2016-08-07T06:28:21.156Z,88.19
2016-08-07T06:29:21.199Z,88.67
2016-08-07T06:30:21.617Z,88.76
2016-08-07T06:31:21.148Z,89.05
2016-08-07T06:32:21.951Z,88.95
2016-08-07T06:33:21.197Z,88.9
2016-08-07T06:34:21.134Z,88.13
2016-08-07T06:35:21.159Z,87.47
2016-08-07T06:36:21.136Z,86.8
2016-08-07T06:38:21.148Z,87.37
2016-08-07T06:39:21.101Z,87.27
2016-08-07T06:40:21.093Z,87.95
2016-08-07T06:41:21.106Z,88.23
2016-08-07T06:42:21.100Z,88.43
2016-08-07T06:43:21.076Z,87.95
2016-08-07T06:44:21.097Z,87.47
2016-08-07T06:45:21.412Z,87.37
2016-08-07T06:46:21.132Z,86.61
2016-08-07T06:47:21.178Z,86.13
2016-08-07T06:48:21.073Z,85.46
2016-08-07T06:49:21.068Z,86.08
2016-08-07T06:50:21.066Z,85.98
2016-08-07T06:51:21.046Z,85.6
2016-08-07T06:52:21.055Z,85.12
2016-08-07T06:53:21.055Z,85.02
2016-08-07T06:54:21.033Z,84.55
2016-08-07T06:55:21.029Z,83.2
2016-08-07T06:56:21.040Z,83.68
2016-08-07T06:57:21.031Z,83.53
2016-08-07T06:58:21.036Z,83.15
2016-08-07T06:59:21.015Z,82.09
2016-08-07T07:00:21.064Z,81.75
2016-08-07T07:01:21.012Z,80.79
2016-08-07T07:02:21.182Z,78.53
2016-08-07T07:03:21.002Z,78.57
2016-08-07T07:04:21.009Z,74.96
2016-08-07T07:05:21.021Z,70.52
2016-08-07T07:06:20.998Z,68.06
2016-08-07T07:07:21.013Z,65.53
2016-08-07T07:08:20.991Z,63.85
2016-08-07T07:09:20.996Z,60.93
2016-08-07T07:10:20.989Z,56.84
2016-08-07T07:11:20.988Z,54.36
2016-08-07T07:12:20.999Z,55.29
2016-08-07T07:13:21.005Z,51.28
2016-08-07T07:14:21.002Z,48.79
2016-08-07T07:15:20.991Z,46.29
2016-08-07T07:16:21.715Z,46.31
2016-08-07T07:17:20.998Z,44.2
2016-08-07T07:18:21.751Z,43.54
2016-08-07T07:19:21.003Z,42.21
2016-08-07T07:20:21.154Z,41.06
2016-08-07T07:21:21.009Z,40.58
2016-08-07T07:22:21.028Z,41.16
2016-08-07T07:23:21.059Z,39.24
2016-08-07T07:24:21.031Z,40.01
2016-08-07T07:25:21.024Z,41.45
2016-08-07T07:26:21.017Z,39.92
2016-08-07T07:27:21.029Z,39.65
2016-08-07T07:28:21.060Z,43.07
2016-08-07T07:29:21.036Z,38.52
2016-08-07T07:30:21.023Z,36.2
2016-08-07T07:31:21.041Z,36.1
2016-08-07T07:32:21.038Z,37.56
2016-08-07T07:33:21.049Z,35.15
2016-08-07T07:34:21.044Z,38.17
2016-08-07T07:35:21.054Z,37.29
2016-08-07T07:36:21.061Z,36.04
2016-08-07T07:37:21.080Z,35.26
2016-08-07T07:38:21.062Z,34.39
2016-08-07T07:39:21.057Z,33.51
2016-08-07T07:40:21.076Z,33.78
2016-08-07T07:41:21.106Z,35.81
2016-08-07T07:42:21.105Z,35.81
2016-08-07T07:43:21.090Z,37.46
2016-08-07T07:44:21.145Z,38.95
2016-08-07T07:45:21.095Z,34.39
2016-08-07T07:46:23.657Z,34.31
2016-08-07T07:47:21.122Z,32.37
2016-08-07T08:02:23.112Z,37.33
2016-08-07T08:03:23.075Z,32.45
2016-08-07T08:04:23.060Z,30.8
2016-08-07T08:05:23.075Z,30.31
2016-08-07T08:06:23.072Z,30.49
2016-08-07T08:07:23.090Z,34.86
2016-08-07T08:08:23.072Z,32.81
2016-08-07T08:09:23.793Z,34.06
2016-08-07T08:10:23.095Z,36.1
2016-08-07T08:11:23.083Z,37.74
2016-08-07T08:12:23.090Z,34.9
2016-08-07T08:13:23.090Z,37.02
2016-08-07T08:14:23.104Z,40.29
2016-08-07T08:15:23.096Z,42.69
2016-08-07T08:16:23.104Z,41.24
2016-08-07T08:17:23.107Z,40.34
2016-08-07T08:18:23.120Z,41.86
2016-08-07T08:19:23.117Z,42.32
2016-08-07T08:20:23.127Z,46.75
2016-08-07T08:21:23.117Z,46.66
2016-08-07T08:22:23.124Z,45.76
2016-08-07T08:23:23.126Z,50.67
2016-08-07T08:24:23.125Z,51.81
2016-08-07T08:25:23.117Z,51.51
2016-08-07T08:26:23.135Z,51.49
2016-08-07T08:27:23.149Z,50.43
2016-08-07T08:28:23.149Z,51.2
2016-08-07T08:29:23.129Z,49.63
2016-08-07T08:30:23.150Z,51.37
2016-08-07T08:31:23.157Z,49.92
2016-08-07T08:32:23.141Z,51.07
2016-08-07T08:33:23.143Z,51.73
2016-08-07T08:34:23.150Z,54.69
2016-08-07T08:35:23.157Z,51.8
2016-08-07T08:36:23.155Z,52.64
2016-08-07T08:37:23.151Z,53.77
2016-08-07T08:38:23.157Z,53.96
2016-08-07T08:39:23.168Z,54.42
2016-08-07T08:40:23.182Z,54.52
2016-08-07T08:41:23.154Z,55.38
2016-08-07T08:42:23.167Z,55.38
2016-08-07T08:43:23.150Z,55.65
2016-08-07T08:44:23.155Z,55.52
2016-08-07T08:45:23.162Z,56.48
2016-08-07T08:46:23.159Z,57.25
2016-08-07T08:47:23.164Z,58.31
2016-08-07T08:48:23.165Z,56.8
2016-08-07T08:49:23.181Z,56.35
2016-08-07T08:50:23.187Z,55.48
2016-08-07T08:51:23.172Z,55.19
2016-08-07T08:52:23.168Z,54.32
2016-08-07T08:53:23.176Z,54.9
2016-08-07T08:54:23.157Z,54.32
2016-08-07T08:55:23.164Z,56.54
2016-08-07T08:56:23.168Z,56.25
2016-08-07T08:57:23.182Z,56.05
2016-08-07T08:58:23.162Z,53.74
2016-08-07T08:59:23.177Z,54.03
2016-08-07T09:00:23.169Z,55.29
2016-08-07T09:01:23.189Z,56.05
2016-08-07T09:02:23.163Z,56.05
2016-08-07T09:03:23.170Z,55.57
2016-08-07T09:04:23.191Z,54.22
2016-08-07T09:05:23.884Z,54.32
2016-08-07T09:06:23.167Z,55.48
2016-08-07T09:07:23.179Z,53.27
2016-08-07T09:08:23.172Z,53.94
2016-08-07T09:09:23.185Z,53.65
2016-08-07T09:10:23.186Z,54.32
2016-08-07T09:11:23.189Z,53.07
2016-08-07T09:12:23.180Z,56.57
2016-08-07T09:13:23.184Z,57.43
2016-08-07T09:14:23.184Z,58.2
2016-08-07T09:15:23.187Z,56.09
2016-08-07T09:16:23.177Z,53.31
2016-08-07T09:17:23.176Z,53.51
2016-08-07T09:18:23.173Z,54.31
2016-08-07T09:19:23.240Z,55.94
2016-08-07T09:20:23.181Z,53.63
2016-08-07T09:21:23.200Z,50.9
2016-08-07T09:22:23.178Z,50.52
2016-08-07T09:23:23.179Z,54.47
2016-08-07T09:24:23.208Z,52.13
2016-08-07T09:25:23.204Z,54.44
2016-08-07T09:26:23.200Z,53.48
2016-08-07T09:27:23.204Z,54.35
2016-08-07T09:28:23.224Z,54.54
2016-08-07T09:29:23.325Z,55.02
2016-08-07T09:30:23.210Z,60.64
2016-08-07T09:31:23.204Z,58.42
2016-08-07T09:32:23.924Z,50.32
2016-08-07T09:33:23.197Z,49.75
2016-08-07T09:34:23.189Z,51.77
2016-08-07T09:35:23.214Z,51.39
2016-08-07T09:36:23.231Z,51.1
2016-08-07T09:37:23.194Z,50.42
2016-08-07T09:38:23.192Z,51.26
2016-08-07T09:39:23.205Z,50.78
2016-08-07T09:40:23.216Z,53.77
2016-08-07T09:41:23.205Z,58.11
2016-08-07T09:42:23.218Z,57.34
2016-08-07T09:43:23.207Z,55.51
2016-08-07T09:44:23.288Z,52.42
2016-08-07T09:45:23.209Z,53.67
2016-08-07T09:46:23.211Z,54.25
2016-08-07T09:47:23.213Z,56.85
2016-08-07T09:48:23.203Z,55.82
2016-08-07T09:49:23.221Z,55.31
2016-08-07T09:50:23.217Z,53.58
2016-08-07T09:51:23.218Z,56.66
2016-08-07T09:52:23.201Z,57.75
2016-08-07T09:54:23.201Z,53.61
2016-08-07T09:55:23.207Z,52.35
2016-08-07T09:56:23.229Z,54.38
2016-08-07T09:57:23.208Z,52.83
2016-08-07T09:58:38.086Z,53.61
2016-08-07T09:59:23.206Z,49.94
2016-08-07T10:00:23.220Z,50.78
2016-08-07T10:01:23.209Z,51.07
2016-08-07T10:02:23.214Z,51.07
2016-08-07T10:03:23.210Z,51.62
2016-08-07T10:04:23.220Z,52.87
2016-08-07T10:05:23.229Z,52.2
2016-08-07T10:06:23.209Z,53.65
2016-08-07T10:07:23.213Z,54.42
2016-08-07T10:09:23.209Z,53.14
2016-08-07T10:10:23.227Z,55.16
2016-08-07T10:11:23.223Z,56.12
2016-08-07T10:12:23.238Z,54.49
2016-08-07T10:13:23.222Z,55.16
2016-08-07T10:14:23.220Z,55.55
2016-08-07T10:15:23.220Z,51.62
2016-08-07T10:16:23.224Z,52.59
2016-08-07T10:17:23.223Z,51.82
2016-08-07T10:18:23.217Z,52.11
2016-08-07T10:19:23.217Z,54.32
2016-08-07T10:20:23.238Z,53.36
2016-08-07T10:21:23.215Z,53.29
2016-08-07T10:22:23.234Z,52.71
2016-08-07T10:24:23.223Z,52.42
2016-08-07T10:25:23.227Z,53.65
2016-08-07T10:26:23.227Z,55
2016-08-07T10:27:23.223Z,55.57
2016-08-07T10:28:23.230Z,55.29
2016-08-07T10:29:23.217Z,54.8
2016-08-07T10:30:23.227Z,56.25
2016-08-07T10:31:23.237Z,57.09
2016-08-07T10:32:23.244Z,55.35
2016-08-07T10:33:23.278Z,55.35
2016-08-07T10:34:23.262Z,56.32
2016-08-07T10:35:23.231Z,55.55
2016-08-07T10:36:23.217Z,55.16
2016-08-07T10:37:23.235Z,54.68
2016-08-07T10:38:23.220Z,53.14
2016-08-07T10:39:23.226Z,54.39
2016-08-07T10:40:23.238Z,55.45
2016-08-07T10:41:23.234Z,56.99
2016-08-07T10:42:23.241Z,55.55
2016-08-07T10:43:23.229Z,53.43
2016-08-07T10:44:23.241Z,53.14
2016-08-07T10:45:23.222Z,54.52
2016-08-07T10:46:23.225Z,53.94
2016-08-07T10:47:23.237Z,52.69
2016-08-07T10:48:23.229Z,53.36
2016-08-07T10:49:23.222Z,54.52
2016-08-07T10:50:23.234Z,55.77
2016-08-07T10:51:23.232Z,53.84
2016-08-07T10:52:23.228Z,52.69
2016-08-07T10:53:23.231Z,51.92
2016-08-07T10:55:23.239Z,51.53
2016-08-07T10:56:23.231Z,52.59
2016-08-07T10:57:23.237Z,51.82
2016-08-07T10:58:23.231Z,54.22
2016-08-07T10:59:23.250Z,49.91
2016-08-07T11:00:23.249Z,47.51
2016-08-07T11:01:23.226Z,48.76
2016-08-07T11:02:23.233Z,48.57
2016-08-07T11:03:23.233Z,48.28
2016-08-07T11:04:23.238Z,47.31
2016-08-07T11:05:23.256Z,49.73
2016-08-07T11:06:23.231Z,49.82
2016-08-07T11:07:23.230Z,49.73
2016-08-07T11:08:23.233Z,53.39
2016-08-07T11:09:23.248Z,51.56
2016-08-07T11:10:23.941Z,48.66
2016-08-07T11:11:23.238Z,49.34
2016-08-07T11:12:23.241Z,48.95
2016-08-07T11:13:23.248Z,45.87
2016-08-07T11:14:23.458Z,47.03
2016-08-07T11:15:23.393Z,47.7
2016-08-07T11:16:23.271Z,47.29
2016-08-07T11:17:23.259Z,48.74
2016-08-07T11:18:23.237Z,48.64
2016-08-07T11:19:23.245Z,47.49
2016-08-07T11:20:23.245Z,48.06
2016-08-07T11:21:23.250Z,48.47
2016-08-07T11:22:23.239Z,49.32
2016-08-07T11:23:23.246Z,49.82
2016-08-07T11:24:23.256Z,49.63
2016-08-07T11:25:23.235Z,49.91
2016-08-07T11:26:23.962Z,49.82
2016-08-07T11:27:23.241Z,50.01
2016-08-07T11:28:23.254Z,54.44
2016-08-07T11:29:23.291Z,51.29
2016-08-07T11:30:23.282Z,51.07
2016-08-07T11:31:23.249Z,52.23
2016-08-07T11:32:23.256Z,50.71
2016-08-07T11:33:23.243Z,50.32
2016-08-07T11:34:23.255Z,49.73
2016-08-07T11:35:23.239Z,47.44
2016-08-07T11:36:23.250Z,47.7
2016-08-07T11:37:23.242Z,48.69
2016-08-07T11:38:23.257Z,50.4
2016-08-07T11:39:23.262Z,50.69
2016-08-07T11:40:23.246Z,49.73
2016-08-07T11:41:23.245Z,50.04
2016-08-07T11:42:23.269Z,51.26
2016-08-07T11:43:23.251Z,53.31
2016-08-07T11:44:23.282Z,51.29
2016-08-07T11:45:23.264Z,51.2
2016-08-07T11:46:23.247Z,50.23
2016-08-07T11:47:23.267Z,49.65
2016-08-07T11:48:23.280Z,49.94
2016-08-07T11:49:23.262Z,47.05
2016-08-07T11:50:23.261Z,48.88
2016-08-07T11:51:23.260Z,48.76
2016-08-07T11:52:23.255Z,51.26
2016-08-07T11:53:23.270Z,50.69
2016-08-07T11:54:23.273Z,50.11
2016-08-07T11:55:23.280Z,47.6
2016-08-07T11:56:23.256Z,46.45
2016-08-07T11:57:23.279Z,46.73
2016-08-07T11:58:23.295Z,48.18
2016-08-07T11:59:23.363Z,53.29
2016-08-07T12:00:23.268Z,53
2016-08-07T12:01:23.266Z,53.58
2016-08-07T12:02:23.263Z,54.64
2016-08-07T12:03:23.287Z,54.54
2016-08-07T12:04:23.335Z,57.94
2016-08-07T12:05:23.274Z,51.77
2016-08-07T12:06:23.269Z,51.77
2016-08-07T12:07:23.272Z,54.18
2016-08-07T12:08:23.272Z,53.51
2016-08-07T12:09:23.287Z,53.7
2016-08-07T12:10:23.280Z,56.98
2016-08-07T12:11:23.292Z,51.68
2016-08-07T12:12:23.281Z,52.06
2016-08-07T12:13:23.281Z,52.45
2016-08-07T12:14:23.276Z,52.73
2016-08-07T12:15:23.291Z,54.38
2016-08-07T12:16:23.279Z,50.23
2016-08-07T12:17:23.280Z,51.46
2016-08-07T12:18:23.295Z,48.69
2016-08-07T12:19:23.289Z,49.63
2016-08-07T12:20:23.270Z,49.07
2016-08-07T12:21:23.287Z,49.37
2016-08-07T12:22:23.288Z,49.55
2016-08-07T12:23:23.281Z,49.84
2016-08-07T12:24:23.281Z,51.29
2016-08-07T12:25:23.285Z,51.56
2016-08-07T12:26:23.309Z,51.94
2016-08-07T12:27:23.281Z,51.26
2016-08-07T12:28:23.308Z,49.63
2016-08-07T12:29:23.293Z,51.46
2016-08-07T12:30:23.290Z,52.52
2016-08-07T12:31:23.288Z,52.42
2016-08-07T12:32:23.296Z,52.83
2016-08-07T12:33:23.290Z,49.46
2016-08-07T12:34:23.298Z,49.63
2016-08-07T12:35:23.335Z,51.2
2016-08-07T12:36:23.288Z,53.58
2016-08-07T12:37:23.280Z,55.05
2016-08-07T12:38:23.293Z,54.66
2016-08-07T12:39:23.301Z,53.61
2016-08-07T12:40:23.304Z,54.38
2016-08-07T12:41:23.300Z,53.7
2016-08-07T12:42:23.289Z,56.98
2016-08-07T12:43:23.290Z,53.89
2016-08-07T12:44:23.341Z,50.52
2016-08-07T12:45:23.303Z,50.62
2016-08-07T12:46:23.305Z,51.39
2016-08-07T12:47:23.298Z,50.81
2016-08-07T12:48:23.306Z,50.13
2016-08-07T12:49:23.299Z,50.42
2016-08-07T12:50:23.298Z,49.84
2016-08-07T12:51:23.301Z,52.16
2016-08-07T12:52:23.310Z,52.45
2016-08-07T12:53:23.308Z,51.39
2016-08-07T12:54:23.326Z,53.89
2016-08-07T12:55:24.017Z,55.54
2016-08-07T12:56:23.307Z,51.39
2016-08-07T12:57:23.312Z,51.68
2016-08-07T12:58:23.327Z,48.59
2016-08-07T12:59:23.311Z,49.07
2016-08-07T13:00:23.428Z,52.64
2016-08-07T13:01:23.308Z,54.66
2016-08-07T13:02:23.424Z,54.47
2016-08-07T13:03:23.318Z,53.89
2016-08-07T13:04:23.319Z,53.61
2016-08-07T13:05:23.330Z,50.9
2016-08-07T13:06:23.331Z,51.97
2016-08-07T13:07:23.347Z,50.42
2016-08-07T13:08:23.330Z,51.1
2016-08-07T13:09:23.341Z,48.59
2016-08-07T13:10:23.313Z,48.79
2016-08-07T13:11:23.318Z,50.23
2016-08-07T13:12:23.320Z,50.62
2016-08-07T13:13:23.332Z,48.71
2016-08-07T13:14:23.326Z,47.63
2016-08-07T13:15:23.336Z,49.65
2016-08-07T13:16:23.322Z,48.79
2016-08-07T13:17:23.321Z,49.96
2016-08-07T13:18:23.319Z,49.55
2016-08-07T13:19:23.340Z,52.16
2016-08-07T13:20:23.333Z,52.25
2016-08-07T13:21:23.323Z,50.81
2016-08-07T13:22:23.321Z,47.34
2016-08-07T13:23:23.341Z,48.97